• Join FlightAware (Why Join?)
  • Login
  • US Flag 
05:07PM EDT


 

Airport Tracker/Info


-or-


 

Live Flight TrackerFlight Track Log ✈ AWE3268 ✈ 27-Apr-2014 ✈ KCVG - KPHL

Flight Track Log - Related Links

Times and Time Zones

All times are in EDT time to prevent confusion due to time zone crossing. See the AWE3268 flight status page for this flight to view local times or setup timezone preferences in your user account.

Time Position Orientation Groundspeed Altitude Reporting Facility
EDT Latitude Longitude Course Direction KTS MPH feet Rate Location/Type
01:43PM 39.0333 -84.6500 44° Northeast 161 185 1,500  Level Cincinnati TRACON
01:43PM 39.0167 -84.6167 129° Southeast 162 186 2,400 1,680 Climbing Cincinnati TRACON
01:44PM 39.0167 -84.5500 90° East 227 261 4,100 1,740 Climbing Cincinnati TRACON
01:45PM 39.0367 -84.5022 62° Northeast 243 280 5,300 2,100 Climbing Indianapolis Center
01:46PM 39.0647 -84.4089 69° East 274 315 7,600 2,280 Climbing Indianapolis Center
01:47PM 39.0151 -84.2290 63° Northeast  Level FlightAware Approximate
01:47PM 39.0933 -84.3086 70° East 291 335 10,000  Level Indianapolis Center
01:48PM 39.0791 -84.1262 44° Northeast  Level FlightAware Approximate
01:48PM 39.1247 -84.1992 70° East 319 367 11,700  Level Indianapolis Center
01:49PM 39.1586 -84.0806 70° East 346 398 13,500 1,860 Climbing Indianapolis Center
01:50PM 39.1953 -83.9575 69° East 360 414 15,600 1,800 Climbing Indianapolis Center
01:51PM 39.2539 -83.8489 55° Northeast 371 427 17,300 1,800 Climbing Indianapolis Center
01:52PM 39.3372 -83.7294 48° Northeast 371 427 19,400 1,800 Climbing Indianapolis Center
01:53PM 39.4092 -83.6275 48° Northeast 380 437 21,000 1,320 Climbing Indianapolis Center
01:54PM 39.4817 -83.5239 48° Northeast 388 447 22,200 1,260 Climbing Indianapolis Center
01:55PM 39.5561 -83.4172 48° Northeast 397 457 23,700 1,260 Climbing Indianapolis Center
01:56PM 39.6003 -83.2861 66° East 415 478 24,900 1,140 Climbing Indianapolis Center
01:57PM 39.6178 -83.1375 81° East 419 482 26,100 1,200 Climbing Indianapolis Center
01:58PM 39.6392 -82.9542 81° East 428 493 27,400 1,140 Climbing Indianapolis Center
01:59PM 39.6581 -82.7992 81° East 432 497 28,500 1,020 Climbing Indianapolis Center
02:00PM 39.6767 -82.6392 81° East 442 509 29,500 780 Climbing Indianapolis Center
02:01PM 39.6947 -82.4744 82° East 457 526 30,200 720 Climbing Indianapolis Center
02:03PM 39.7139 -82.3058 82° East 468 539 31,000 360 Climbing Indianapolis Center
02:04PM 39.7333 -82.1347 82° East 476 548 31,000  Level Indianapolis Center
02:05PM 39.7508 -81.9694 82° East 471 542 31,000  Level Indianapolis Center
02:06PM 39.7728 -81.7689 82° East 468 539 31,000  Level Indianapolis Center
02:07PM 39.7911 -81.6003 82° East 469 540 31,000  Level Indianapolis Center
02:08PM 39.8161 -81.4231 80° East 469 540 31,000  Level Indianapolis Center
02:08PM 39.8375 -81.3231 74° East 469 540 31,000  Level Cleveland Center
02:09PM 39.8706 -81.1631 75° East 463 533 31,000  Level Cleveland Center
02:10PM 39.9028 -81.0014 75° East 462 532 31,000  Level Cleveland Center
02:11PM 39.9353 -80.8419 75° East 460 529 31,000  Level Cleveland Center
02:12PM 39.9675 -80.6822 75° East 459 528 31,000  Level Cleveland Center
02:13PM 39.9981 -80.5211 76° East 459 528 31,000  Level Cleveland Center
02:14PM 40.0350 -80.3311 76° East 458 527 31,000  Level Cleveland Center
02:16PM 40.0653 -80.1728 76° East 454 522 31,000  Level Cleveland Center
02:17PM 40.0961 -80.0144 76° East 455 524 31,000  Level Cleveland Center
02:18PM 40.1261 -79.8553 76° East 455 524 31,000  Level Cleveland Center
02:19PM 40.1636 -79.6631 76° East 456 525 31,000  Level Cleveland Center
02:20PM 40.1944 -79.5017 76° East 458 527 31,000  Level Cleveland Center
02:21PM 40.2247 -79.3392 76° East 459 528 31,000  Level Cleveland Center
02:22PM 40.2531 -79.1783 77° East 460 529 31,000  Level Cleveland Center
02:23PM 40.2886 -78.9850 76° East 460 529 31,000  Level Cleveland Center
02:24PM 40.3153 -78.8231 78° East 461 531 31,000  Level Cleveland Center
02:25PM 40.3169 -78.6492 89° East 479 551 31,000  Level Cleveland Center
02:26PM 40.3156 -78.4767 91° East 479 551 31,000 -780 Level Cleveland Center
02:27PM 40.3153 -78.3028 90° East 481 554 29,500 -2,280 Descending Cleveland Center
02:28PM 40.3142 -78.0936 90° East 483 556 26,400 -2,220 Descending Cleveland Center
02:29PM 40.3128 -77.9222 91° East 479 551 25,000 -1,200 Descending Cleveland Center
02:30PM 40.3106 -77.7578 91° East 461 531 24,000 -1,140 Descending Cleveland Center
02:31PM 40.3100 -77.5992 90° East 443 510 22,700 -1,320 Descending Cleveland Center
02:32PM 40.3072 -77.4450 91° East 433 498 21,300 -1,560 Descending Cleveland Center
02:33PM 40.3056 -77.2608 91° East 428 493 19,600 -1,560 Descending Cleveland Center
02:34PM 40.2900 -77.1142 98° East 424 488 18,200 -1,320 Descending Cleveland Center
02:35PM 40.2678 -76.9631 101° East 423 487 16,900 -1,380 Descending Cleveland Center
02:36PM 40.2433 -76.8119 102° East 423 487 15,400 -1,440 Descending Cleveland Center
02:37PM 40.2164 -76.6233 101° East 415 478 13,700 -1,440 Descending New York Center
02:38PM 40.1975 -76.4994 101° East 394 453 12,300 -900 Descending New York Center
02:39PM 40.1789 -76.3647 100° East 382 440 12,000 -300 Descending New York Center
02:40PM 40.1564 -76.2217 102° East 372 428 11,800 -780 Descending New York Center
02:41PM 40.1353 -76.0925 102° East 372 428 10,500 -1,200 Descending New York Center
02:42PM 40.1211 -75.9883 100° East 337 388 9,400 -1,140 Descending New York Center
02:43PM 40.0992 -75.8725 104° East 312 359 8,300 -720 Descending New York Center
02:44PM 40.0828 -75.7656 101° East 295 339 8,000 -180 Descending New York Center
02:45PM 40.0769 -75.6594 94° East 295 339 8,000 -420 Level New York Center
02:46PM 40.0706 -75.5558 95° East 295 339 7,200 -900 Descending New York Center
02:47PM 40.0644 -75.4494 94° East 295 339 6,200 -600 Descending New York Center
02:48PM 40.0622 -75.3517 92° East 285 328 6,000 -120 Descending New York Center
02:49PM 40.0431 -75.2528 104° East 273 314 6,000  Level New York Center
02:50PM 40.0169 -75.1672 112° Southeast 266 306 6,000  Level New York Center
02:51PM 39.9964 -75.1036 113° Southeast 230 265 6,000 -480 Level New York Center
02:52PM 40.0011 -75.0306 85° East 194 223 5,100 -1,200 Descending New York Center
02:53PM 40.0136 -74.9717 74° East 182 209 3,700 -1,080 Descending New York Center
02:54PM 39.9647 -74.9417 155° Southeast 148 170 3,000 -360 Descending New York Center
02:55PM 39.9264 -74.9692 209° Southwest 161 185 3,000 -120 Level New York Center
02:57PM 39.9167 -75.0500 261° West 165 190 2,800 -540 Descending Philadelphia TRACON
02:58PM 39.9000 -75.1167 252° West 170 196 1,800 -900 Descending Philadelphia TRACON
02:59PM 39.8833 -75.1667 247° West 131 151 1,100 -780 Descending Philadelphia TRACON
03:00PM 39.8833 -75.2000 270° West 139 160 300 -840 Descending Philadelphia TRACON